Pagrindinis puslapis
METAR-TAF:

METAR-TAF

Oro uostai :

Çardak, Turkija

platuma: 37-47N, ilguma: 029-42E, Aukštis: 849 m

Dabartinis oras

Ataskaita buvo paskelbta 29 minutes, ne 03:50 UTC
Vėjas 5 kt iš Vakarų
Temperatūra 15°C
Drėgmė 67%
Slėgis 1014 hPa
Matomumas 10 km arba daugiau
nėra debesų žemiau 1500 m ir nėra kamuolinių lietaus debesų

METAR: LTAY 150350Z 26005KT CAVOK 15/09 Q1014

Laikas: 07:19 (04:19 UTC)

Prognozė

Ataskaita buvo paskelbta 2 valandos ir 39 minutes, ne 01:40 UTC
Prognozė galioja nuo 15 metu 03 UTC su 15 metu 12 UTC
Vėjas 2 kt nuo kintamojo kryptimis
Matomumas 10 km arba daugiau
nėra debesų žemiau 1500 m ir nėra kamuolinių lietaus debesų

TAF: LTAY 150140Z 1503/1512 VRB02KT CAVOK

Orai ataskaitas ir orų prognozės (METAR, TAF).

turimą stotys yra geltonos ir raudonos taškus žemėlapyje.

Perkelti pele per norėdami pamatyti stoties vardą.

Tada spustelėkite, norėdami matyti oro stebėjimo ir prognozės.

Norėdami pakeisti žemėlapį: spustelėkite ant žalios mygtukų su juodo kryžiaus žemyn,; žalią mygtuką su brūkšneliu, jei norite nutolinti; arba žalių rodyklių gretimoms žemėlapius.


METAR-TAF: